sensor_id;sensor_type;location;lat;lon;timestamp;P1;durP1;ratioP1;P2;durP2;ratioP2
50301;SDS011;36550;50.472;19.744;2023-07-16T00:00:20;5.80;;;3.90;;
50301;SDS011;36550;50.472;19.744;2023-07-16T00:03:04;8.20;;;3.90;;
50301;SDS011;36550;50.472;19.744;2023-07-16T00:05:49;6.60;;;4.00;;
50301;SDS011;36550;50.472;19.744;2023-07-16T00:08:34;9.40;;;4.30;;
50301;SDS011;36550;50.472;19.744;2023-07-16T00:11:19;5.60;;;3.90;;
50301;SDS011;36550;50.472;19.744;2023-07-16T00:14:03;7.00;;;4.30;;
50301;SDS011;36550;50.472;19.744;2023-07-16T00:16:49;6.50;;;4.10;;
50301;SDS011;36550;50.472;19.744;2023-07-16T00:19:33;5.90;;;4.30;;
50301;SDS011;36550;50.472;19.744;2023-07-16T00:22:17;7.40;;;3.90;;
50301;SDS011;36550;50.472;19.744;2023-07-16T00:25:01;5.60;;;3.90;;
50301;SDS011;36550;50.472;19.744;2023-07-16T00:27:46;4.20;;;3.70;;
50301;SDS011;36550;50.472;19.744;2023-07-16T00:30:30;5.80;;;4.50;;
50301;SDS011;36550;50.472;19.744;2023-07-16T00:33:14;5.30;;;4.20;;
50301;SDS011;36550;50.472;19.744;2023-07-16T00:35:58;9.70;;;5.20;;
50301;SDS011;36550;50.472;19.744;2023-07-16T00:38:43;10.50;;;6.70;;
50301;SDS011;36550;50.472;19.744;2023-07-16T00:41:29;6.80;;;5.50;;
50301;SDS011;36550;50.472;19.744;2023-07-16T00:44:13;5.80;;;3.70;;
50301;SDS011;36550;50.472;19.744;2023-07-16T00:46:57;6.10;;;4.20;;
50301;SDS011;36550;50.472;19.744;2023-07-16T00:49:41;5.60;;;4.30;;
50301;SDS011;36550;50.472;19.744;2023-07-16T00:52:25;10.30;;;4.40;;
50301;SDS011;36550;50.472;19.744;2023-07-16T00:55:09;6.20;;;4.50;;
50301;SDS011;36550;50.472;19.744;2023-07-16T00:57:53;8.60;;;4.90;;
50301;SDS011;36550;50.472;19.744;2023-07-16T01:00:40;6.10;;;4.90;;
50301;SDS011;36550;50.472;19.744;2023-07-16T01:03:25;9.60;;;5.00;;
50301;SDS011;36550;50.472;19.744;2023-07-16T01:06:11;6.50;;;4.80;;
50301;SDS011;36550;50.472;19.744;2023-07-16T01:09:04;6.10;;;5.10;;
50301;SDS011;36550;50.472;19.744;2023-07-16T01:11:50;7.40;;;5.00;;
50301;SDS011;36550;50.472;19.744;2023-07-16T01:14:37;6.30;;;4.40;;
50301;SDS011;36550;50.472;19.744;2023-07-16T01:17:23;5.30;;;4.30;;
50301;SDS011;36550;50.472;19.744;2023-07-16T01:20:07;9.20;;;4.40;;
50301;SDS011;36550;50.472;19.744;2023-07-16T01:32:10;8.40;;;6.10;;
50301;SDS011;36550;50.472;19.744;2023-07-16T01:34:55;11.20;;;5.60;;
50301;SDS011;36550;50.472;19.744;2023-07-16T01:40:25;8.20;;;5.20;;
50301;SDS011;36550;50.472;19.744;2023-07-16T01:43:10;10.60;;;6.40;;
50301;SDS011;36550;50.472;19.744;2023-07-16T01:45:54;11.60;;;5.30;;
50301;SDS011;36550;50.472;19.744;2023-07-16T01:48:38;9.00;;;5.00;;
50301;SDS011;36550;50.472;19.744;2023-07-16T01:51:22;10.00;;;5.40;;
50301;SDS011;36550;50.472;19.744;2023-07-16T01:54:06;7.00;;;5.30;;
50301;SDS011;36550;50.472;19.744;2023-07-16T01:56:50;6.80;;;5.30;;
50301;SDS011;36550;50.472;19.744;2023-07-16T01:59:35;8.40;;;4.80;;
50301;SDS011;36550;50.472;19.744;2023-07-16T02:02:19;8.30;;;5.40;;
50301;SDS011;36550;50.472;19.744;2023-07-16T02:05:03;7.30;;;4.70;;
50301;SDS011;36550;50.472;19.744;2023-07-16T02:07:47;7.50;;;5.00;;
50301;SDS011;36550;50.472;19.744;2023-07-16T02:10:32;7.30;;;5.20;;
50301;SDS011;36550;50.472;19.744;2023-07-16T02:13:16;7.00;;;5.10;;
50301;SDS011;36550;50.472;19.744;2023-07-16T02:16:00;7.60;;;5.20;;
50301;SDS011;36550;50.472;19.744;2023-07-16T02:18:44;7.80;;;5.00;;
50301;SDS011;36550;50.472;19.744;2023-07-16T02:21:28;9.40;;;4.80;;
50301;SDS011;36550;50.472;19.744;2023-07-16T02:24:12;7.60;;;4.80;;
50301;SDS011;36550;50.472;19.744;2023-07-16T02:26:56;9.50;;;4.50;;
50301;SDS011;36550;50.472;19.744;2023-07-16T02:29:40;8.00;;;4.70;;
50301;SDS011;36550;50.472;19.744;2023-07-16T02:32:25;6.80;;;4.90;;
50301;SDS011;36550;50.472;19.744;2023-07-16T02:35:09;6.80;;;5.10;;
50301;SDS011;36550;50.472;19.744;2023-07-16T02:37:54;6.80;;;4.40;;
50301;SDS011;36550;50.472;19.744;2023-07-16T02:40:42;6.40;;;5.30;;
50301;SDS011;36550;50.472;19.744;2023-07-16T02:43:30;10.20;;;5.40;;
50301;SDS011;36550;50.472;19.744;2023-07-16T02:46:15;8.80;;;5.50;;
50301;SDS011;36550;50.472;19.744;2023-07-16T02:48:59;7.90;;;4.90;;
50301;SDS011;36550;50.472;19.744;2023-07-16T02:51:43;5.80;;;4.90;;
50301;SDS011;36550;50.472;19.744;2023-07-16T02:54:27;8.20;;;5.60;;
50301;SDS011;36550;50.472;19.744;2023-07-16T02:57:11;8.00;;;4.90;;
50301;SDS011;36550;50.472;19.744;2023-07-16T02:59:55;8.80;;;5.30;;
50301;SDS011;36550;50.472;19.744;2023-07-16T03:02:39;8.30;;;5.00;;
50301;SDS011;36550;50.472;19.744;2023-07-16T03:05:24;7.70;;;5.40;;
50301;SDS011;36550;50.472;19.744;2023-07-16T03:08:09;8.40;;;5.50;;
50301;SDS011;36550;50.472;19.744;2023-07-16T03:10:53;8.90;;;4.90;;
50301;SDS011;36550;50.472;19.744;2023-07-16T03:13:37;8.70;;;5.30;;
50301;SDS011;36550;50.472;19.744;2023-07-16T03:16:20;7.80;;;4.90;;
50301;SDS011;36550;50.472;19.744;2023-07-16T03:19:04;8.00;;;5.00;;
50301;SDS011;36550;50.472;19.744;2023-07-16T03:24:35;9.20;;;4.80;;
50301;SDS011;36550;50.472;19.744;2023-07-16T03:27:19;8.20;;;4.30;;
50301;SDS011;36550;50.472;19.744;2023-07-16T03:30:03;8.90;;;5.00;;
50301;SDS011;36550;50.472;19.744;2023-07-16T03:32:48;7.30;;;4.90;;
50301;SDS011;36550;50.472;19.744;2023-07-16T03:35:32;9.00;;;5.40;;
50301;SDS011;36550;50.472;19.744;2023-07-16T03:38:16;7.40;;;4.90;;
50301;SDS011;36550;50.472;19.744;2023-07-16T03:41:00;9.40;;;4.60;;
50301;SDS011;36550;50.472;19.744;2023-07-16T03:43:44;9.00;;;4.60;;
50301;SDS011;36550;50.472;19.744;2023-07-16T03:46:28;6.90;;;4.80;;
50301;SDS011;36550;50.472;19.744;2023-07-16T03:49:13;9.70;;;4.90;;
50301;SDS011;36550;50.472;19.744;2023-07-16T03:51:57;9.20;;;5.00;;
50301;SDS011;36550;50.472;19.744;2023-07-16T03:54:40;8.10;;;5.10;;
50301;SDS011;36550;50.472;19.744;2023-07-16T03:57:25;8.40;;;5.20;;
50301;SDS011;36550;50.472;19.744;2023-07-16T04:00:11;8.30;;;5.40;;
50301;SDS011;36550;50.472;19.744;2023-07-16T04:02:55;9.60;;;5.20;;
50301;SDS011;36550;50.472;19.744;2023-07-16T04:05:39;11.40;;;5.40;;
50301;SDS011;36550;50.472;19.744;2023-07-16T04:08:23;11.80;;;5.50;;
50301;SDS011;36550;50.472;19.744;2023-07-16T04:11:07;7.90;;;5.60;;
50301;SDS011;36550;50.472;19.744;2023-07-16T04:13:52;7.40;;;6.20;;
50301;SDS011;36550;50.472;19.744;2023-07-16T04:16:36;7.80;;;5.70;;
50301;SDS011;36550;50.472;19.744;2023-07-16T04:19:20;9.20;;;5.70;;
50301;SDS011;36550;50.472;19.744;2023-07-16T04:22:04;9.90;;;5.90;;
50301;SDS011;36550;50.472;19.744;2023-07-16T04:24:48;11.30;;;6.00;;
50301;SDS011;36550;50.472;19.744;2023-07-16T04:27:33;12.90;;;5.40;;
50301;SDS011;36550;50.472;19.744;2023-07-16T04:30:18;9.10;;;5.90;;
50301;SDS011;36550;50.472;19.744;2023-07-16T04:33:02;9.40;;;5.10;;
50301;SDS011;36550;50.472;19.744;2023-07-16T04:35:47;9.20;;;5.00;;
50301;SDS011;36550;50.472;19.744;2023-07-16T04:38:31;9.20;;;5.30;;
50301;SDS011;36550;50.472;19.744;2023-07-16T04:41:16;8.80;;;5.50;;
50301;SDS011;36550;50.472;19.744;2023-07-16T04:44:00;10.40;;;5.30;;
50301;SDS011;36550;50.472;19.744;2023-07-16T04:46:44;6.30;;;5.00;;
50301;SDS011;36550;50.472;19.744;2023-07-16T04:49:28;6.00;;;5.00;;
50301;SDS011;36550;50.472;19.744;2023-07-16T04:52:12;8.50;;;4.60;;
50301;SDS011;36550;50.472;19.744;2023-07-16T04:54:56;7.70;;;4.70;;
50301;SDS011;36550;50.472;19.744;2023-07-16T04:57:41;9.30;;;5.30;;
50301;SDS011;36550;50.472;19.744;2023-07-16T05:00:25;11.60;;;5.30;;
50301;SDS011;36550;50.472;19.744;2023-07-16T05:03:09;8.80;;;5.40;;
50301;SDS011;36550;50.472;19.744;2023-07-16T05:05:53;7.40;;;5.10;;
50301;SDS011;36550;50.472;19.744;2023-07-16T05:08:37;10.10;;;5.10;;
50301;SDS011;36550;50.472;19.744;2023-07-16T05:11:21;8.80;;;5.30;;
50301;SDS011;36550;50.472;19.744;2023-07-16T05:14:05;6.80;;;5.30;;
50301;SDS011;36550;50.472;19.744;2023-07-16T05:16:50;9.20;;;5.40;;
50301;SDS011;36550;50.472;19.744;2023-07-16T05:19:34;6.90;;;4.80;;
50301;SDS011;36550;50.472;19.744;2023-07-16T05:22:18;9.10;;;4.90;;
50301;SDS011;36550;50.472;19.744;2023-07-16T05:25:02;7.30;;;4.60;;
50301;SDS011;36550;50.472;19.744;2023-07-16T05:27:47;7.90;;;4.80;;
50301;SDS011;36550;50.472;19.744;2023-07-16T05:30:31;8.50;;;4.60;;
50301;SDS011;36550;50.472;19.744;2023-07-16T05:33:16;7.00;;;4.60;;
50301;SDS011;36550;50.472;19.744;2023-07-16T05:36:00;5.10;;;4.20;;
50301;SDS011;36550;50.472;19.744;2023-07-16T05:38:44;7.10;;;4.00;;
50301;SDS011;36550;50.472;19.744;2023-07-16T05:41:29;6.10;;;3.90;;
50301;SDS011;36550;50.472;19.744;2023-07-16T05:44:13;6.30;;;4.20;;
50301;SDS011;36550;50.472;19.744;2023-07-16T05:46:57;5.70;;;4.00;;
50301;SDS011;36550;50.472;19.744;2023-07-16T05:49:41;7.20;;;3.70;;
50301;SDS011;36550;50.472;19.744;2023-07-16T05:52:26;7.10;;;3.60;;
50301;SDS011;36550;50.472;19.744;2023-07-16T05:55:10;6.80;;;3.50;;
50301;SDS011;36550;50.472;19.744;2023-07-16T05:57:54;5.00;;;3.70;;
50301;SDS011;36550;50.472;19.744;2023-07-16T06:00:38;4.90;;;3.50;;
50301;SDS011;36550;50.472;19.744;2023-07-16T06:03:23;5.10;;;3.40;;
50301;SDS011;36550;50.472;19.744;2023-07-16T06:06:10;3.00;;;2.60;;
50301;SDS011;36550;50.472;19.744;2023-07-16T06:08:55;4.80;;;3.10;;
50301;SDS011;36550;50.472;19.744;2023-07-16T06:11:39;5.60;;;3.00;;
50301;SDS011;36550;50.472;19.744;2023-07-16T06:14:23;5.70;;;3.10;;
50301;SDS011;36550;50.472;19.744;2023-07-16T06:17:07;3.50;;;2.80;;
50301;SDS011;36550;50.472;19.744;2023-07-16T06:19:51;3.30;;;2.80;;
50301;SDS011;36550;50.472;19.744;2023-07-16T06:22:36;3.20;;;2.90;;
50301;SDS011;36550;50.472;19.744;2023-07-16T06:28:04;3.80;;;2.90;;
50301;SDS011;36550;50.472;19.744;2023-07-16T06:30:49;4.40;;;3.00;;
50301;SDS011;36550;50.472;19.744;2023-07-16T06:33:35;4.80;;;2.90;;
50301;SDS011;36550;50.472;19.744;2023-07-16T06:36:19;5.40;;;2.80;;
50301;SDS011;36550;50.472;19.744;2023-07-16T06:39:04;5.40;;;2.90;;
50301;SDS011;36550;50.472;19.744;2023-07-16T06:41:48;3.80;;;2.90;;
50301;SDS011;36550;50.472;19.744;2023-07-16T06:44:33;6.10;;;3.20;;
50301;SDS011;36550;50.472;19.744;2023-07-16T06:47:17;4.20;;;3.10;;
50301;SDS011;36550;50.472;19.744;2023-07-16T06:50:02;3.30;;;2.90;;
50301;SDS011;36550;50.472;19.744;2023-07-16T06:55:55;5.60;;;3.10;;
50301;SDS011;36550;50.472;19.744;2023-07-16T06:58:39;6.70;;;3.00;;
50301;SDS011;36550;50.472;19.744;2023-07-16T07:01:23;5.70;;;3.10;;
50301;SDS011;36550;50.472;19.744;2023-07-16T07:04:08;5.80;;;2.90;;
50301;SDS011;36550;50.472;19.744;2023-07-16T07:06:52;6.20;;;3.10;;
50301;SDS011;36550;50.472;19.744;2023-07-16T07:09:36;7.00;;;3.30;;
50301;SDS011;36550;50.472;19.744;2023-07-16T07:12:20;12.00;;;4.50;;
50301;SDS011;36550;50.472;19.744;2023-07-16T07:15:07;8.20;;;4.30;;
50301;SDS011;36550;50.472;19.744;2023-07-16T07:17:52;7.40;;;4.80;;
50301;SDS011;36550;50.472;19.744;2023-07-16T07:20:36;8.10;;;4.50;;
50301;SDS011;36550;50.472;19.744;2023-07-16T07:23:20;7.10;;;4.30;;
50301;SDS011;36550;50.472;19.744;2023-07-16T07:26:04;5.80;;;3.70;;
50301;SDS011;36550;50.472;19.744;2023-07-16T07:28:48;12.10;;;4.20;;
50301;SDS011;36550;50.472;19.744;2023-07-16T07:31:32;7.30;;;3.60;;
50301;SDS011;36550;50.472;19.744;2023-07-16T07:34:16;6.40;;;3.40;;
50301;SDS011;36550;50.472;19.744;2023-07-16T07:37:00;4.60;;;4.10;;
50301;SDS011;36550;50.472;19.744;2023-07-16T07:39:43;6.90;;;4.00;;
50301;SDS011;36550;50.472;19.744;2023-07-16T07:42:31;5.60;;;3.90;;
50301;SDS011;36550;50.472;19.744;2023-07-16T07:45:15;6.20;;;4.30;;
50301;SDS011;36550;50.472;19.744;2023-07-16T07:47:59;5.10;;;4.30;;
50301;SDS011;36550;50.472;19.744;2023-07-16T07:50:43;6.80;;;4.50;;
50301;SDS011;36550;50.472;19.744;2023-07-16T07:53:27;6.60;;;5.70;;
50301;SDS011;36550;50.472;19.744;2023-07-16T07:56:11;8.60;;;5.60;;
50301;SDS011;36550;50.472;19.744;2023-07-16T07:58:56;5.70;;;4.10;;
50301;SDS011;36550;50.472;19.744;2023-07-16T08:01:40;9.70;;;4.90;;
50301;SDS011;36550;50.472;19.744;2023-07-16T08:04:24;7.50;;;4.20;;
50301;SDS011;36550;50.472;19.744;2023-07-16T08:07:08;9.70;;;4.30;;
50301;SDS011;36550;50.472;19.744;2023-07-16T08:09:52;5.30;;;4.10;;
50301;SDS011;36550;50.472;19.744;2023-07-16T08:12:36;5.10;;;3.70;;
50301;SDS011;36550;50.472;19.744;2023-07-16T08:15:20;7.30;;;4.30;;
50301;SDS011;36550;50.472;19.744;2023-07-16T08:18:05;4.60;;;4.20;;
50301;SDS011;36550;50.472;19.744;2023-07-16T08:20:49;9.40;;;7.90;;
50301;SDS011;36550;50.472;19.744;2023-07-16T08:23:33;11.20;;;9.40;;
50301;SDS011;36550;50.472;19.744;2023-07-16T08:26:17;9.40;;;5.70;;
50301;SDS011;36550;50.472;19.744;2023-07-16T08:29:01;7.40;;;5.30;;
50301;SDS011;36550;50.472;19.744;2023-07-16T08:31:46;5.80;;;5.30;;
50301;SDS011;36550;50.472;19.744;2023-07-16T08:34:30;5.70;;;5.20;;
50301;SDS011;36550;50.472;19.744;2023-07-16T08:37:14;9.10;;;5.60;;
50301;SDS011;36550;50.472;19.744;2023-07-16T08:39:58;6.70;;;6.00;;
50301;SDS011;36550;50.472;19.744;2023-07-16T08:42:44;7.60;;;6.10;;
50301;SDS011;36550;50.472;19.744;2023-07-16T08:45:28;7.60;;;5.90;;
50301;SDS011;36550;50.472;19.744;2023-07-16T08:48:14;9.10;;;6.20;;
50301;SDS011;36550;50.472;19.744;2023-07-16T08:50:58;8.70;;;6.30;;
50301;SDS011;36550;50.472;19.744;2023-07-16T08:53:46;10.70;;;6.60;;
50301;SDS011;36550;50.472;19.744;2023-07-16T08:56:30;7.30;;;6.60;;
50301;SDS011;36550;50.472;19.744;2023-07-16T08:59:14;8.20;;;6.50;;
50301;SDS011;36550;50.472;19.744;2023-07-16T09:01:59;7.20;;;6.50;;
50301;SDS011;36550;50.472;19.744;2023-07-16T09:04:48;8.60;;;6.80;;
50301;SDS011;36550;50.472;19.744;2023-07-16T09:07:33;9.10;;;6.60;;
50301;SDS011;36550;50.472;19.744;2023-07-16T09:10:20;11.80;;;7.60;;
50301;SDS011;36550;50.472;19.744;2023-07-16T09:13:03;11.90;;;8.90;;
50301;SDS011;36550;50.472;19.744;2023-07-16T09:15:51;12.40;;;8.30;;
50301;SDS011;36550;50.472;19.744;2023-07-16T09:18:35;9.90;;;8.90;;
50301;SDS011;36550;50.472;19.744;2023-07-16T09:21:19;9.20;;;8.40;;
50301;SDS011;36550;50.472;19.744;2023-07-16T09:24:09;10.50;;;8.50;;
50301;SDS011;36550;50.472;19.744;2023-07-16T09:26:54;10.50;;;9.50;;
50301;SDS011;36550;50.472;19.744;2023-07-16T09:29:44;13.60;;;9.30;;
50301;SDS011;36550;50.472;19.744;2023-07-16T09:32:35;13.30;;;10.30;;
50301;SDS011;36550;50.472;19.744;2023-07-16T09:35:20;11.20;;;10.00;;
50301;SDS011;36550;50.472;19.744;2023-07-16T09:38:04;10.50;;;9.50;;
50301;SDS011;36550;50.472;19.744;2023-07-16T09:40:48;11.20;;;9.30;;
50301;SDS011;36550;50.472;19.744;2023-07-16T09:43:32;10.70;;;9.70;;
50301;SDS011;36550;50.472;19.744;2023-07-16T09:46:17;10.00;;;9.00;;
50301;SDS011;36550;50.472;19.744;2023-07-16T09:49:01;14.30;;;9.60;;
50301;SDS011;36550;50.472;19.744;2023-07-16T09:51:45;9.90;;;8.60;;
50301;SDS011;36550;50.472;19.744;2023-07-16T09:54:32;9.90;;;8.80;;
50301;SDS011;36550;50.472;19.744;2023-07-16T09:57:21;9.70;;;8.50;;
50301;SDS011;36550;50.472;19.744;2023-07-16T10:00:08;10.80;;;8.70;;
50301;SDS011;36550;50.472;19.744;2023-07-16T10:02:57;11.50;;;8.70;;
50301;SDS011;36550;50.472;19.744;2023-07-16T10:05:41;11.70;;;9.00;;
50301;SDS011;36550;50.472;19.744;2023-07-16T10:08:25;10.20;;;8.20;;
50301;SDS011;36550;50.472;19.744;2023-07-16T10:11:18;12.00;;;7.90;;
50301;SDS011;36550;50.472;19.744;2023-07-16T10:14:02;8.70;;;7.00;;
50301;SDS011;36550;50.472;19.744;2023-07-16T10:16:46;9.10;;;8.00;;
50301;SDS011;36550;50.472;19.744;2023-07-16T10:19:34;10.90;;;7.80;;
50301;SDS011;36550;50.472;19.744;2023-07-16T10:22:46;8.60;;;7.40;;
50301;SDS011;36550;50.472;19.744;2023-07-16T10:25:30;8.00;;;7.30;;
50301;SDS011;36550;50.472;19.744;2023-07-16T10:28:15;9.30;;;7.50;;
50301;SDS011;36550;50.472;19.744;2023-07-16T10:30:59;9.40;;;7.90;;
50301;SDS011;36550;50.472;19.744;2023-07-16T10:33:55;10.80;;;7.60;;
50301;SDS011;36550;50.472;19.744;2023-07-16T10:36:49;8.30;;;7.40;;
50301;SDS011;36550;50.472;19.744;2023-07-16T10:39:34;8.00;;;7.20;;
50301;SDS011;36550;50.472;19.744;2023-07-16T10:42:18;8.70;;;7.20;;
50301;SDS011;36550;50.472;19.744;2023-07-16T10:45:06;8.30;;;7.30;;
50301;SDS011;36550;50.472;19.744;2023-07-16T10:47:52;8.20;;;7.40;;
50301;SDS011;36550;50.472;19.744;2023-07-16T10:50:37;9.30;;;7.70;;
50301;SDS011;36550;50.472;19.744;2023-07-16T10:56:06;12.20;;;7.70;;
50301;SDS011;36550;50.472;19.744;2023-07-16T10:58:50;10.50;;;7.20;;
50301;SDS011;36550;50.472;19.744;2023-07-16T11:01:34;10.50;;;7.70;;
50301;SDS011;36550;50.472;19.744;2023-07-16T11:04:20;8.50;;;7.30;;
50301;SDS011;36550;50.472;19.744;2023-07-16T11:07:07;12.40;;;7.00;;
50301;SDS011;36550;50.472;19.744;2023-07-16T11:09:52;7.00;;;6.20;;
50301;SDS011;36550;50.472;19.744;2023-07-16T11:12:38;9.10;;;6.50;;
50301;SDS011;36550;50.472;19.744;2023-07-16T11:15:32;9.60;;;5.60;;
50301;SDS011;36550;50.472;19.744;2023-07-16T11:18:16;6.40;;;5.70;;
50301;SDS011;36550;50.472;19.744;2023-07-16T11:21:02;7.80;;;6.20;;
50301;SDS011;36550;50.472;19.744;2023-07-16T11:23:47;6.00;;;5.30;;
50301;SDS011;36550;50.472;19.744;2023-07-16T11:26:31;6.80;;;5.70;;
50301;SDS011;36550;50.472;19.744;2023-07-16T11:29:14;7.80;;;5.30;;
50301;SDS011;36550;50.472;19.744;2023-07-16T11:31:59;7.60;;;5.40;;
50301;SDS011;36550;50.472;19.744;2023-07-16T11:34:52;8.90;;;5.40;;
50301;SDS011;36550;50.472;19.744;2023-07-16T11:37:40;8.10;;;4.90;;
50301;SDS011;36550;50.472;19.744;2023-07-16T11:40:24;9.30;;;5.40;;
50301;SDS011;36550;50.472;19.744;2023-07-16T11:43:12;9.20;;;5.70;;
50301;SDS011;36550;50.472;19.744;2023-07-16T11:45:56;8.40;;;5.50;;
50301;SDS011;36550;50.472;19.744;2023-07-16T11:48:40;10.40;;;5.90;;
50301;SDS011;36550;50.472;19.744;2023-07-16T11:51:27;7.70;;;5.10;;
50301;SDS011;36550;50.472;19.744;2023-07-16T11:54:11;6.20;;;5.60;;
50301;SDS011;36550;50.472;19.744;2023-07-16T11:56:54;5.90;;;5.10;;
50301;SDS011;36550;50.472;19.744;2023-07-16T11:59:38;5.60;;;5.10;;
50301;SDS011;36550;50.472;19.744;2023-07-16T12:02:23;6.60;;;5.30;;
50301;SDS011;36550;50.472;19.744;2023-07-16T12:05:09;9.30;;;4.80;;
50301;SDS011;36550;50.472;19.744;2023-07-16T12:07:53;6.60;;;4.90;;
50301;SDS011;36550;50.472;19.744;2023-07-16T12:11:17;6.30;;;4.80;;
50301;SDS011;36550;50.472;19.744;2023-07-16T12:14:08;7.40;;;5.00;;
50301;SDS011;36550;50.472;19.744;2023-07-16T12:16:52;6.70;;;4.70;;
50301;SDS011;36550;50.472;19.744;2023-07-16T12:19:37;8.80;;;5.00;;
50301;SDS011;36550;50.472;19.744;2023-07-16T12:22:21;7.80;;;4.90;;
50301;SDS011;36550;50.472;19.744;2023-07-16T12:25:06;5.40;;;4.50;;
50301;SDS011;36550;50.472;19.744;2023-07-16T12:27:50;5.30;;;4.70;;
50301;SDS011;36550;50.472;19.744;2023-07-16T12:30:34;9.70;;;4.60;;
50301;SDS011;36550;50.472;19.744;2023-07-16T12:33:18;11.20;;;5.50;;
50301;SDS011;36550;50.472;19.744;2023-07-16T12:36:02;6.40;;;4.70;;
50301;SDS011;36550;50.472;19.744;2023-07-16T12:38:46;6.20;;;4.50;;
50301;SDS011;36550;50.472;19.744;2023-07-16T12:41:30;5.40;;;4.00;;
50301;SDS011;36550;50.472;19.744;2023-07-16T12:44:14;5.60;;;4.30;;
50301;SDS011;36550;50.472;19.744;2023-07-16T12:47:00;9.00;;;4.50;;
50301;SDS011;36550;50.472;19.744;2023-07-16T12:49:44;5.20;;;4.40;;
50301;SDS011;36550;50.472;19.744;2023-07-16T12:52:28;6.60;;;4.30;;
50301;SDS011;36550;50.472;19.744;2023-07-16T12:55:12;6.50;;;4.40;;
50301;SDS011;36550;50.472;19.744;2023-07-16T12:57:57;5.40;;;4.90;;
50301;SDS011;36550;50.472;19.744;2023-07-16T13:00:41;6.60;;;4.90;;
50301;SDS011;36550;50.472;19.744;2023-07-16T13:03:25;5.30;;;4.00;;
50301;SDS011;36550;50.472;19.744;2023-07-16T13:06:10;5.00;;;3.80;;
50301;SDS011;36550;50.472;19.744;2023-07-16T13:08:54;6.30;;;4.40;;
50301;SDS011;36550;50.472;19.744;2023-07-16T13:11:37;9.90;;;4.50;;
50301;SDS011;36550;50.472;19.744;2023-07-16T13:14:22;5.20;;;4.10;;
50301;SDS011;36550;50.472;19.744;2023-07-16T13:17:06;8.10;;;4.40;;
50301;SDS011;36550;50.472;19.744;2023-07-16T13:19:50;10.20;;;4.60;;
50301;SDS011;36550;50.472;19.744;2023-07-16T13:22:33;8.60;;;4.30;;
50301;SDS011;36550;50.472;19.744;2023-07-16T13:25:17;7.20;;;4.50;;
50301;SDS011;36550;50.472;19.744;2023-07-16T13:28:02;6.70;;;4.40;;
50301;SDS011;36550;50.472;19.744;2023-07-16T13:33:31;5.20;;;4.10;;
50301;SDS011;36550;50.472;19.744;2023-07-16T13:36:15;5.60;;;4.00;;
50301;SDS011;36550;50.472;19.744;2023-07-16T13:38:59;5.30;;;4.10;;
50301;SDS011;36550;50.472;19.744;2023-07-16T13:41:43;5.00;;;4.20;;
50301;SDS011;36550;50.472;19.744;2023-07-16T13:44:27;5.60;;;4.40;;
50301;SDS011;36550;50.472;19.744;2023-07-16T13:47:11;5.30;;;4.10;;
50301;SDS011;36550;50.472;19.744;2023-07-16T13:49:55;7.30;;;4.40;;
50301;SDS011;36550;50.472;19.744;2023-07-16T13:52:39;5.70;;;4.10;;
50301;SDS011;36550;50.472;19.744;2023-07-16T13:55:23;5.30;;;4.20;;
50301;SDS011;36550;50.472;19.744;2023-07-16T13:58:07;7.60;;;3.90;;
50301;SDS011;36550;50.472;19.744;2023-07-16T14:00:51;10.10;;;3.90;;
50301;SDS011;36550;50.472;19.744;2023-07-16T14:03:35;4.50;;;4.10;;
50301;SDS011;36550;50.472;19.744;2023-07-16T14:06:19;7.60;;;4.40;;
50301;SDS011;36550;50.472;19.744;2023-07-16T14:09:03;5.10;;;4.00;;
50301;SDS011;36550;50.472;19.744;2023-07-16T14:11:49;6.20;;;4.00;;
50301;SDS011;36550;50.472;19.744;2023-07-16T14:14:33;4.80;;;4.30;;
50301;SDS011;36550;50.472;19.744;2023-07-16T14:17:18;9.10;;;4.20;;
50301;SDS011;36550;50.472;19.744;2023-07-16T14:20:05;5.90;;;4.20;;
50301;SDS011;36550;50.472;19.744;2023-07-16T14:22:50;4.80;;;4.30;;
50301;SDS011;36550;50.472;19.744;2023-07-16T14:25:34;5.60;;;4.60;;
50301;SDS011;36550;50.472;19.744;2023-07-16T14:28:18;5.40;;;4.40;;
50301;SDS011;36550;50.472;19.744;2023-07-16T14:31:02;6.50;;;4.50;;
50301;SDS011;36550;50.472;19.744;2023-07-16T14:33:46;7.80;;;4.50;;
50301;SDS011;36550;50.472;19.744;2023-07-16T14:36:30;7.60;;;4.90;;
50301;SDS011;36550;50.472;19.744;2023-07-16T14:39:14;12.30;;;10.10;;
50301;SDS011;36550;50.472;19.744;2023-07-16T14:41:59;15.60;;;11.20;;
50301;SDS011;36550;50.472;19.744;2023-07-16T14:44:47;6.90;;;6.00;;
50301;SDS011;36550;50.472;19.744;2023-07-16T14:47:31;7.60;;;5.50;;
50301;SDS011;36550;50.472;19.744;2023-07-16T14:50:15;7.40;;;5.20;;
50301;SDS011;36550;50.472;19.744;2023-07-16T14:52:59;7.30;;;4.80;;
50301;SDS011;36550;50.472;19.744;2023-07-16T14:55:50;10.50;;;5.40;;
50301;SDS011;36550;50.472;19.744;2023-07-16T14:58:35;11.70;;;4.40;;
50301;SDS011;36550;50.472;19.744;2023-07-16T15:01:20;5.60;;;5.00;;
50301;SDS011;36550;50.472;19.744;2023-07-16T15:04:04;5.90;;;4.90;;
50301;SDS011;36550;50.472;19.744;2023-07-16T15:06:48;7.10;;;5.50;;
50301;SDS011;36550;50.472;19.744;2023-07-16T15:09:34;8.30;;;5.90;;
50301;SDS011;36550;50.472;19.744;2023-07-16T15:12:21;40.50;;;30.40;;
50301;SDS011;36550;50.472;19.744;2023-07-16T15:15:05;17.90;;;12.50;;
50301;SDS011;36550;50.472;19.744;2023-07-16T15:17:50;9.00;;;7.10;;
50301;SDS011;36550;50.472;19.744;2023-07-16T15:20:34;6.90;;;6.00;;
50301;SDS011;36550;50.472;19.744;2023-07-16T15:23:18;11.70;;;6.30;;
50301;SDS011;36550;50.472;19.744;2023-07-16T15:26:02;7.30;;;6.20;;
50301;SDS011;36550;50.472;19.744;2023-07-16T15:28:48;7.30;;;6.50;;
50301;SDS011;36550;50.472;19.744;2023-07-16T15:31:32;7.70;;;5.90;;
50301;SDS011;36550;50.472;19.744;2023-07-16T15:34:16;9.50;;;6.80;;
50301;SDS011;36550;50.472;19.744;2023-07-16T15:37:00;8.10;;;6.50;;
50301;SDS011;36550;50.472;19.744;2023-07-16T15:39:44;9.90;;;7.30;;
50301;SDS011;36550;50.472;19.744;2023-07-16T15:42:28;10.40;;;7.40;;
50301;SDS011;36550;50.472;19.744;2023-07-16T15:45:12;8.50;;;7.00;;
50301;SDS011;36550;50.472;19.744;2023-07-16T15:47:57;10.90;;;7.80;;
50301;SDS011;36550;50.472;19.744;2023-07-16T15:53:25;9.50;;;7.90;;
50301;SDS011;36550;50.472;19.744;2023-07-16T15:56:10;9.40;;;7.90;;
50301;SDS011;36550;50.472;19.744;2023-07-16T15:58:55;10.10;;;7.30;;
50301;SDS011;36550;50.472;19.744;2023-07-16T16:01:39;9.30;;;7.10;;
50301;SDS011;36550;50.472;19.744;2023-07-16T16:04:23;9.30;;;6.70;;
50301;SDS011;36550;50.472;19.744;2023-07-16T16:07:07;11.10;;;6.70;;
50301;SDS011;36550;50.472;19.744;2023-07-16T16:09:51;8.30;;;6.80;;
50301;SDS011;36550;50.472;19.744;2023-07-16T16:12:34;10.70;;;7.60;;
50301;SDS011;36550;50.472;19.744;2023-07-16T16:15:18;9.50;;;7.70;;
50301;SDS011;36550;50.472;19.744;2023-07-16T16:18:02;8.90;;;7.80;;
50301;SDS011;36550;50.472;19.744;2023-07-16T16:20:47;9.90;;;7.30;;
50301;SDS011;36550;50.472;19.744;2023-07-16T16:26:15;9.10;;;7.10;;
50301;SDS011;36550;50.472;19.744;2023-07-16T16:28:59;12.30;;;7.30;;
50301;SDS011;36550;50.472;19.744;2023-07-16T16:31:43;8.70;;;7.20;;
50301;SDS011;36550;50.472;19.744;2023-07-16T16:34:28;9.10;;;7.50;;
50301;SDS011;36550;50.472;19.744;2023-07-16T16:39:56;9.00;;;7.20;;
50301;SDS011;36550;50.472;19.744;2023-07-16T16:42:42;12.50;;;7.40;;
50301;SDS011;36550;50.472;19.744;2023-07-16T16:48:11;13.10;;;7.10;;
50301;SDS011;36550;50.472;19.744;2023-07-16T16:50:55;10.10;;;7.40;;